createdAt,value
2022-12-22T00:00:12.100Z,7.01
2022-12-22T00:01:29.614Z,7.01
2022-12-22T00:02:41.748Z,6.95
2022-12-22T00:03:53.665Z,6.92
2022-12-22T00:05:05.558Z,6.91
2022-12-22T00:06:17.561Z,6.89
2022-12-22T00:07:29.554Z,6.92
2022-12-22T00:08:29.582Z,6.94
2022-12-22T00:09:28.366Z,6.72
2022-12-22T00:10:28.590Z,6.63
2022-12-22T00:11:27.319Z,6.72
2022-12-22T00:12:27.558Z,6.64
2022-12-22T00:13:26.074Z,6.77
2022-12-22T00:14:24.541Z,6.65
2022-12-22T00:15:24.398Z,6.66
2022-12-22T00:16:23.603Z,6.67
2022-12-22T00:17:24.944Z,6.65
2022-12-22T00:18:23.534Z,6.78
2022-12-22T00:19:22.065Z,6.78
2022-12-22T00:20:20.547Z,6.67
2022-12-22T00:21:19.003Z,6.69
2022-12-22T00:22:17.513Z,6.66
2022-12-22T00:23:16.067Z,6.57
2022-12-22T00:24:15.522Z,6.66
2022-12-22T00:25:14.178Z,6.54
2022-12-22T00:26:13.539Z,6.58
2022-12-22T00:27:12.253Z,6.57
2022-12-22T00:28:11.517Z,6.69
2022-12-22T00:29:10.107Z,6.62
2022-12-22T00:30:10.544Z,6.65
2022-12-22T00:31:09.990Z,6.61
2022-12-22T00:32:08.539Z,6.61
2022-12-22T00:33:07.464Z,6.58
2022-12-22T00:34:06.512Z,6.71
2022-12-22T00:35:07.345Z,6.80
2022-12-22T00:36:06.498Z,6.71
2022-12-22T00:37:18.749Z,6.81
2022-12-22T00:38:30.510Z,6.63
2022-12-22T00:39:45.499Z,6.68
2022-12-22T00:41:01.512Z,6.72
2022-12-22T00:42:14.503Z,6.86
2022-12-22T00:43:13.542Z,6.83
2022-12-22T00:44:12.228Z,6.87
2022-12-22T00:45:11.537Z,6.87
2022-12-22T00:46:10.323Z,6.84
2022-12-22T00:47:10.506Z,6.96
2022-12-22T00:48:08.971Z,6.91
2022-12-22T00:49:09.537Z,6.95
2022-12-22T00:50:11.215Z,6.84
2022-12-22T00:51:10.556Z,6.86
2022-12-22T00:52:10.503Z,6.81
2022-12-22T00:53:09.500Z,6.91
2022-12-22T00:54:08.480Z,7.01
2022-12-22T00:55:07.505Z,6.90
2022-12-22T00:56:06.077Z,7.06
2022-12-22T00:57:05.516Z,7.08
2022-12-22T00:58:05.307Z,7.09
2022-12-22T00:59:04.493Z,7.04
2022-12-22T01:00:03.034Z,7.07
2022-12-22T01:01:02.538Z,7.02
2022-12-22T01:02:01.371Z,7.13
2022-12-22T01:03:00.631Z,7.08
2022-12-22T01:03:59.030Z,7.07
2022-12-22T01:04:57.502Z,7.00
2022-12-22T01:05:56.093Z,6.92
2022-12-22T01:06:57.499Z,6.98
2022-12-22T01:07:56.104Z,6.91
2022-12-22T01:08:55.466Z,6.88
2022-12-22T01:09:53.957Z,6.85
2022-12-22T01:10:52.478Z,7.00
2022-12-22T01:11:52.220Z,6.87
2022-12-22T01:12:52.529Z,6.92
2022-12-22T01:13:52.213Z,7.02
2022-12-22T01:14:51.491Z,7.03
2022-12-22T01:15:51.950Z,7.06
2022-12-22T01:16:50.500Z,6.93
2022-12-22T01:17:48.945Z,6.97
2022-12-22T01:18:47.529Z,7.01
2022-12-22T01:19:45.931Z,7.00
2022-12-22T01:20:44.463Z,6.98
2022-12-22T01:21:43.849Z,7.06
2022-12-22T01:22:46.499Z,7.11
2022-12-22T01:23:45.051Z,7.00
2022-12-22T01:24:44.488Z,7.04
2022-12-22T01:25:45.463Z,6.93
2022-12-22T01:26:45.448Z,7.07
2022-12-22T01:27:44.230Z,7.18
2022-12-22T01:28:43.461Z,7.06
2022-12-22T01:29:41.891Z,7.04
2022-12-22T01:30:40.532Z,7.02
2022-12-22T01:31:44.224Z,6.94
2022-12-22T01:32:50.435Z,7.02
2022-12-22T01:33:43.181Z,7.05
2022-12-22T01:34:49.444Z,7.07
2022-12-22T01:35:54.507Z,7.06
2022-12-22T01:37:06.519Z,7.10
2022-12-22T01:38:18.454Z,7.10
2022-12-22T01:39:30.452Z,7.05
2022-12-22T01:40:50.443Z,7.06
2022-12-22T01:41:49.507Z,7.00
2022-12-22T01:42:48.237Z,7.00
2022-12-22T01:43:51.456Z,7.12
2022-12-22T01:44:50.211Z,7.07
2022-12-22T01:45:54.448Z,7.00
2022-12-22T01:47:18.438Z,6.99
2022-12-22T01:48:30.438Z,6.98
2022-12-22T01:49:51.448Z,6.92
2022-12-22T01:51:06.425Z,7.01
2022-12-22T01:52:18.457Z,6.97
2022-12-22T01:53:30.428Z,7.00
2022-12-22T01:54:44.425Z,6.94
2022-12-22T01:55:58.442Z,6.99
2022-12-22T01:57:11.429Z,6.92
2022-12-22T01:58:10.446Z,6.94
2022-12-22T01:59:15.056Z,6.95
2022-12-22T02:00:14.412Z,6.97
2022-12-22T02:01:12.926Z,7.02
2022-12-22T02:02:11.642Z,6.98
2022-12-22T02:03:10.393Z,6.85
2022-12-22T02:04:09.438Z,6.89
2022-12-22T02:05:11.064Z,6.96
2022-12-22T02:06:59.823Z,6.86
2022-12-22T02:08:32.841Z,6.79
2022-12-22T02:10:08.466Z,6.78
2022-12-22T02:11:41.326Z,6.81
2022-12-22T02:13:00.417Z,6.79
2022-12-22T02:14:49.808Z,6.75
2022-12-22T02:16:11.495Z,6.72
2022-12-22T02:18:06.843Z,6.85
2022-12-22T02:19:19.391Z,6.71
2022-12-22T02:21:00.786Z,6.76
2022-12-22T02:22:33.433Z,6.64
2022-12-22T02:24:15.126Z,6.64
2022-12-22T02:25:30.415Z,6.50
2022-12-22T02:26:53.030Z,6.57
2022-12-22T02:27:53.438Z,6.48
2022-12-22T02:28:51.902Z,6.61
2022-12-22T02:30:00.420Z,6.60
2022-12-22T02:31:00.344Z,6.67
2022-12-22T02:32:02.388Z,6.61
2022-12-22T02:33:10.448Z,6.47
2022-12-22T02:34:22.405Z,6.59
2022-12-22T02:35:46.387Z,6.64
2022-12-22T02:37:24.385Z,6.61
2022-12-22T02:39:12.390Z,6.77
2022-12-22T02:40:23.072Z,6.64
2022-12-22T02:42:09.398Z,6.71
2022-12-22T02:43:53.019Z,6.52
2022-12-22T02:45:09.416Z,6.57
2022-12-22T02:46:21.377Z,6.30
2022-12-22T02:48:03.390Z,6.47
2022-12-22T02:49:26.034Z,6.47
2022-12-22T02:50:56.379Z,6.41
2022-12-22T02:51:59.911Z,6.34
2022-12-22T02:53:01.372Z,6.34
2022-12-22T02:53:59.975Z,6.23
2022-12-22T02:55:00.390Z,6.24
2022-12-22T02:56:06.399Z,6.13
2022-12-22T02:56:59.968Z,6.16
2022-12-22T02:58:06.374Z,6.28
2022-12-22T02:58:58.772Z,6.35
2022-12-22T03:00:05.426Z,6.35
2022-12-22T03:00:58.491Z,6.43
2022-12-22T03:01:57.484Z,6.27
2022-12-22T03:02:50.393Z,6.30
2022-12-22T03:03:43.215Z,6.17
2022-12-22T03:04:42.358Z,6.24
2022-12-22T03:05:34.909Z,6.19
2022-12-22T03:06:27.545Z,6.26
2022-12-22T03:07:26.420Z,6.22
2022-12-22T03:08:18.817Z,6.24
2022-12-22T03:09:11.712Z,6.36
2022-12-22T03:10:10.352Z,6.35
2022-12-22T03:11:03.145Z,6.31
2022-12-22T03:11:55.735Z,6.36
2022-12-22T03:12:54.386Z,6.37
2022-12-22T03:13:47.223Z,6.39
2022-12-22T03:14:39.901Z,6.37
2022-12-22T03:15:39.378Z,6.41
2022-12-22T03:16:32.037Z,6.33
2022-12-22T03:17:24.592Z,6.40
2022-12-22T03:18:32.332Z,6.39
2022-12-22T03:19:24.969Z,6.42
2022-12-22T03:20:17.447Z,6.43
2022-12-22T03:21:17.337Z,6.43
2022-12-22T03:22:09.830Z,6.38
2022-12-22T03:23:02.666Z,6.37
2022-12-22T03:24:01.349Z,6.33
2022-12-22T03:24:54.038Z,6.39
2022-12-22T03:25:46.764Z,6.44
2022-12-22T03:26:27.360Z,6.29
2022-12-22T03:27:01.393Z,6.20
2022-12-22T03:27:35.083Z,6.30
2022-12-22T03:28:16.348Z,6.28
2022-12-22T03:28:50.443Z,6.32
2022-12-22T03:29:30.368Z,6.40
2022-12-22T03:30:11.578Z,6.37
2022-12-22T03:30:51.322Z,6.36
2022-12-22T03:31:32.483Z,6.32
2022-12-22T03:32:12.340Z,6.24
2022-12-22T03:32:52.392Z,6.32
2022-12-22T03:33:32.355Z,6.34
2022-12-22T03:34:13.561Z,6.36
2022-12-22T03:34:53.352Z,6.30
2022-12-22T03:35:34.412Z,6.43
2022-12-22T03:36:16.317Z,6.42
2022-12-22T03:36:56.385Z,6.42
2022-12-22T03:37:36.332Z,6.51
2022-12-22T03:38:16.524Z,6.54
2022-12-22T03:38:56.321Z,6.37
2022-12-22T03:39:36.406Z,6.46
2022-12-22T03:40:17.346Z,6.53
2022-12-22T03:40:58.386Z,6.32
2022-12-22T03:41:57.339Z,6.43
2022-12-22T03:42:55.883Z,6.50
2022-12-22T03:43:55.328Z,6.41
2022-12-22T03:44:53.891Z,6.57
2022-12-22T03:45:53.400Z,6.51
2022-12-22T03:46:34.422Z,6.62
2022-12-22T03:47:14.356Z,6.63
2022-12-22T03:47:54.367Z,6.65
2022-12-22T03:48:34.342Z,6.66
2022-12-22T03:49:14.396Z,6.78
2022-12-22T03:49:54.309Z,6.75
2022-12-22T03:50:34.379Z,6.77
2022-12-22T03:51:16.301Z,6.83
2022-12-22T03:51:57.395Z,6.71
2022-12-22T03:52:37.318Z,6.86
2022-12-22T03:53:17.366Z,6.61
2022-12-22T03:53:57.302Z,6.72
2022-12-22T03:54:37.364Z,6.73
2022-12-22T03:55:24.307Z,6.71
2022-12-22T03:56:01.284Z,6.74
2022-12-22T03:56:46.315Z,6.63
2022-12-22T03:57:26.403Z,6.72
2022-12-22T03:58:06.298Z,6.74
2022-12-22T03:58:46.536Z,6.81
2022-12-22T03:59:27.323Z,6.69
2022-12-22T04:00:07.378Z,6.60
2022-12-22T04:00:48.329Z,6.53
2022-12-22T04:01:28.461Z,6.56
2022-12-22T04:02:08.428Z,6.54
2022-12-22T04:02:48.535Z,6.56
2022-12-22T04:03:28.322Z,6.61
2022-12-22T04:04:08.365Z,6.59
2022-12-22T04:04:48.301Z,6.60
2022-12-22T04:05:28.366Z,6.58
2022-12-22T04:06:09.332Z,6.53
2022-12-22T04:06:50.403Z,6.47
2022-12-22T04:07:30.353Z,6.36
2022-12-22T04:08:11.384Z,6.34
2022-12-22T04:08:52.366Z,6.32
2022-12-22T04:09:32.384Z,6.40
2022-12-22T04:10:32.323Z,6.33
2022-12-22T04:11:31.116Z,6.42
2022-12-22T04:12:31.316Z,6.29
2022-12-22T04:13:11.345Z,6.30
2022-12-22T04:13:51.293Z,6.32
2022-12-22T04:14:34.411Z,6.24
2022-12-22T04:15:17.278Z,6.37
2022-12-22T04:15:57.410Z,6.33
2022-12-22T04:16:38.303Z,6.35
2022-12-22T04:17:18.397Z,6.34
2022-12-22T04:17:59.317Z,6.36
2022-12-22T04:18:39.380Z,6.34
2022-12-22T04:19:19.298Z,6.31
2022-12-22T04:19:59.340Z,6.32
2022-12-22T04:20:40.265Z,6.40
2022-12-22T04:21:20.338Z,6.37
2022-12-22T04:22:01.326Z,6.38
2022-12-22T04:22:41.345Z,6.34
2022-12-22T04:23:21.291Z,6.37
2022-12-22T04:24:01.316Z,6.34
2022-12-22T04:24:42.269Z,6.36
2022-12-22T04:25:22.383Z,6.42
2022-12-22T04:26:02.275Z,6.34
2022-12-22T04:26:42.439Z,6.35
2022-12-22T04:27:22.267Z,6.36
2022-12-22T04:28:02.333Z,6.42
2022-12-22T04:28:42.319Z,6.34
2022-12-22T04:29:23.446Z,6.47
2022-12-22T04:30:03.248Z,6.53
2022-12-22T04:30:43.342Z,6.36
2022-12-22T04:31:23.316Z,6.40
2022-12-22T04:32:03.457Z,6.42
2022-12-22T04:32:44.278Z,6.43
2022-12-22T04:33:24.358Z,6.47
2022-12-22T04:34:05.282Z,6.39
2022-12-22T04:34:45.349Z,6.39
2022-12-22T04:35:25.258Z,6.29
2022-12-22T04:36:05.306Z,6.35
2022-12-22T04:36:45.303Z,6.38
2022-12-22T04:37:26.424Z,6.29
2022-12-22T04:38:06.304Z,6.42
2022-12-22T04:38:46.376Z,6.36
2022-12-22T04:39:27.313Z,6.31
2022-12-22T04:40:08.745Z,6.33
2022-12-22T04:40:49.256Z,6.40
2022-12-22T04:41:29.353Z,6.36
2022-12-22T04:42:09.243Z,6.35
2022-12-22T04:42:49.303Z,6.44
2022-12-22T04:43:30.247Z,6.42
2022-12-22T04:44:10.447Z,6.43
2022-12-22T04:44:50.261Z,6.36
2022-12-22T04:45:30.376Z,6.44
2022-12-22T04:46:11.326Z,6.47
2022-12-22T04:46:51.322Z,6.49
2022-12-22T04:47:31.251Z,6.43
2022-12-22T04:48:12.363Z,6.42
2022-12-22T04:48:57.883Z,6.40
2022-12-22T04:49:40.351Z,6.48
2022-12-22T04:50:20.345Z,6.37
2022-12-22T04:51:03.360Z,6.44
2022-12-22T04:51:43.240Z,6.38
2022-12-22T04:52:23.327Z,6.44
2022-12-22T04:53:04.235Z,6.52
2022-12-22T04:53:38.035Z,6.49
2022-12-22T04:54:25.255Z,6.49
2022-12-22T04:54:59.003Z,6.51
2022-12-22T04:55:39.246Z,6.31
2022-12-22T04:56:15.385Z,6.45
2022-12-22T04:56:50.533Z,6.42
2022-12-22T04:57:34.334Z,6.39
2022-12-22T04:58:12.353Z,6.41
2022-12-22T04:58:46.071Z,6.42
2022-12-22T04:59:27.254Z,6.41
2022-12-22T05:00:01.375Z,6.42
2022-12-22T05:00:34.975Z,6.41
2022-12-22T05:01:19.317Z,6.43
2022-12-22T05:01:53.341Z,6.51
2022-12-22T05:02:27.014Z,6.45
2022-12-22T05:03:07.327Z,6.47
2022-12-22T05:03:41.476Z,6.49
2022-12-22T05:04:18.762Z,6.43
2022-12-22T05:05:03.239Z,6.56
2022-12-22T05:05:37.351Z,6.50
2022-12-22T05:06:11.327Z,6.61
2022-12-22T05:06:52.251Z,6.62
2022-12-22T05:07:26.283Z,6.47
2022-12-22T05:08:00.188Z,6.55
2022-12-22T05:08:41.242Z,6.52
2022-12-22T05:09:17.574Z,6.57
2022-12-22T05:09:52.001Z,6.49
2022-12-22T05:10:33.238Z,6.60
2022-12-22T05:11:07.307Z,6.63
2022-12-22T05:11:41.977Z,6.62
2022-12-22T05:12:41.242Z,6.63
2022-12-22T05:13:15.282Z,6.68
2022-12-22T05:13:48.923Z,6.77
2022-12-22T05:14:29.205Z,6.73
2022-12-22T05:15:03.325Z,6.75
2022-12-22T05:15:37.455Z,6.72
2022-12-22T05:16:23.239Z,6.70
2022-12-22T05:16:57.467Z,6.71
2022-12-22T05:17:31.432Z,6.64
2022-12-22T05:18:12.243Z,6.73
2022-12-22T05:18:47.680Z,6.76
2022-12-22T05:19:24.976Z,6.78
2022-12-22T05:20:10.244Z,6.86
2022-12-22T05:20:44.278Z,6.72
2022-12-22T05:21:21.455Z,6.81
2022-12-22T05:22:01.199Z,6.81
2022-12-22T05:22:35.305Z,6.87
2022-12-22T05:23:08.927Z,6.85
2022-12-22T05:23:50.256Z,6.97
2022-12-22T05:24:24.294Z,6.97
2022-12-22T05:24:57.922Z,6.99
2022-12-22T05:25:39.203Z,6.91
2022-12-22T05:26:14.541Z,6.91
2022-12-22T05:26:48.904Z,6.96
2022-12-22T05:27:29.204Z,6.97
2022-12-22T05:28:03.342Z,6.92
2022-12-22T05:28:37.041Z,6.83
2022-12-22T05:29:17.218Z,6.97
2022-12-22T05:29:51.297Z,7.02
2022-12-22T05:30:26.437Z,6.97
2022-12-22T05:31:17.324Z,6.98
2022-12-22T05:31:51.301Z,6.96
2022-12-22T05:32:25.010Z,7.03
2022-12-22T05:33:06.226Z,6.98
2022-12-22T05:33:40.273Z,6.89
2022-12-22T05:34:13.926Z,7.05
2022-12-22T05:34:55.281Z,7.05
2022-12-22T05:35:29.422Z,7.01
2022-12-22T05:36:03.740Z,7.02
2022-12-22T05:36:44.219Z,7.13
2022-12-22T05:37:18.391Z,7.15
2022-12-22T05:37:52.188Z,7.06
2022-12-22T05:38:33.225Z,7.14
2022-12-22T05:39:07.331Z,7.10
2022-12-22T05:39:42.029Z,7.09
2022-12-22T05:40:22.218Z,7.19
2022-12-22T05:41:03.288Z,7.17
2022-12-22T05:41:37.899Z,7.24
2022-12-22T05:42:18.188Z,7.21
2022-12-22T05:42:52.283Z,7.31
2022-12-22T05:43:25.882Z,7.25
2022-12-22T05:44:07.199Z,7.27
2022-12-22T05:44:41.307Z,7.25
2022-12-22T05:45:20.817Z,7.26
2022-12-22T05:46:02.231Z,7.28
2022-12-22T05:46:36.344Z,7.20
2022-12-22T05:47:09.978Z,7.22
2022-12-22T05:47:53.202Z,7.23
2022-12-22T05:48:31.002Z,7.22
2022-12-22T05:49:09.885Z,7.29
2022-12-22T05:49:50.196Z,7.25
2022-12-22T05:50:28.305Z,7.23
2022-12-22T05:51:01.998Z,7.17
2022-12-22T05:51:42.264Z,7.12
2022-12-22T05:52:16.294Z,7.15
2022-12-22T05:52:50.312Z,7.12
2022-12-22T05:53:30.184Z,7.09
2022-12-22T05:54:04.253Z,7.09
2022-12-22T05:54:37.897Z,7.05
2022-12-22T05:55:20.170Z,7.14
2022-12-22T05:55:54.464Z,6.99
2022-12-22T05:56:28.141Z,7.01
2022-12-22T05:57:09.219Z,7.08
2022-12-22T05:57:43.589Z,7.02
2022-12-22T05:58:18.325Z,7.05
2022-12-22T05:58:59.168Z,6.97
2022-12-22T05:59:33.286Z,7.10
2022-12-22T06:00:10.812Z,7.04
2022-12-22T06:00:51.155Z,6.97
2022-12-22T06:01:25.321Z,6.96
2022-12-22T06:01:58.922Z,6.99
2022-12-22T06:02:40.286Z,6.82
2022-12-22T06:03:14.466Z,6.86
2022-12-22T06:03:50.345Z,6.99
2022-12-22T06:04:32.209Z,6.82
2022-12-22T06:05:06.227Z,6.86
2022-12-22T06:05:40.070Z,6.91
2022-12-22T06:06:21.164Z,6.97
2022-12-22T06:06:55.288Z,6.86
2022-12-22T06:07:29.877Z,6.83
2022-12-22T06:08:11.184Z,6.87
2022-12-22T06:08:45.278Z,6.81
2022-12-22T06:09:18.875Z,6.82
2022-12-22T06:10:00.180Z,6.89
2022-12-22T06:10:34.343Z,6.85
2022-12-22T06:11:08.069Z,6.88
2022-12-22T06:11:49.179Z,6.86
2022-12-22T06:12:23.383Z,6.82
2022-12-22T06:12:56.847Z,6.74
2022-12-22T06:13:38.162Z,6.87
2022-12-22T06:14:12.209Z,6.88
2022-12-22T06:14:45.962Z,6.84
2022-12-22T06:15:26.170Z,6.79
2022-12-22T06:16:00.329Z,6.89
2022-12-22T06:16:33.943Z,6.87
2022-12-22T06:17:15.160Z,6.86
2022-12-22T06:17:49.219Z,6.95
2022-12-22T06:18:23.947Z,6.91
2022-12-22T06:19:04.165Z,6.90
2022-12-22T06:19:38.232Z,6.98
2022-12-22T06:20:13.837Z,6.97
2022-12-22T06:20:57.198Z,6.89
2022-12-22T06:21:32.252Z,6.89
2022-12-22T06:22:06.052Z,6.96
2022-12-22T06:22:47.161Z,6.97
2022-12-22T06:23:22.264Z,6.79
2022-12-22T06:23:56.309Z,6.87
2022-12-22T06:24:36.199Z,6.93
2022-12-22T06:25:17.250Z,6.90
2022-12-22T06:26:00.504Z,7.00
2022-12-22T06:26:40.143Z,6.97
2022-12-22T06:27:14.289Z,6.91
2022-12-22T06:27:48.844Z,6.99
2022-12-22T06:28:30.169Z,6.88
2022-12-22T06:29:04.230Z,6.93
2022-12-22T06:29:44.176Z,6.90
2022-12-22T06:30:30.941Z,6.74
2022-12-22T06:31:13.253Z,6.82
2022-12-22T06:31:53.256Z,6.80
2022-12-22T06:32:35.143Z,6.89
2022-12-22T06:33:16.231Z,6.91
2022-12-22T06:33:50.069Z,6.90
2022-12-22T06:34:31.161Z,7.00
2022-12-22T06:35:12.175Z,6.95
2022-12-22T06:35:48.668Z,6.90
2022-12-22T06:36:38.140Z,6.93
2022-12-22T06:37:11.995Z,6.99
2022-12-22T06:37:59.138Z,6.97
2022-12-22T06:38:33.102Z,6.98
2022-12-22T06:39:21.127Z,7.04
2022-12-22T06:39:54.829Z,7.03
2022-12-22T06:40:35.126Z,6.95
2022-12-22T06:41:09.370Z,6.98
2022-12-22T06:42:02.733Z,6.99
2022-12-22T06:43:08.446Z,7.00
2022-12-22T06:43:43.193Z,6.95
2022-12-22T06:44:16.844Z,7.03
2022-12-22T06:44:59.131Z,6.97
2022-12-22T06:45:33.191Z,6.98
2022-12-22T06:46:13.168Z,6.88
2022-12-22T06:46:53.255Z,6.98
2022-12-22T06:47:33.155Z,7.11
2022-12-22T06:48:15.259Z,7.04
2022-12-22T06:48:55.145Z,7.08
2022-12-22T06:49:35.183Z,7.03
2022-12-22T06:50:16.118Z,6.97
2022-12-22T06:50:57.231Z,6.98
2022-12-22T06:51:37.164Z,6.99
2022-12-22T06:52:18.260Z,7.01
2022-12-22T06:52:59.123Z,6.94
2022-12-22T06:53:39.174Z,6.96
2022-12-22T06:54:24.037Z,7.01
2022-12-22T06:55:06.224Z,7.04
2022-12-22T06:55:47.148Z,7.00
2022-12-22T06:56:27.195Z,6.99
2022-12-22T06:57:08.177Z,6.98
2022-12-22T06:57:48.232Z,6.93
2022-12-22T06:58:29.154Z,6.95
2022-12-22T06:59:10.176Z,6.85
2022-12-22T06:59:57.068Z,6.97
2022-12-22T07:00:38.505Z,6.92
2022-12-22T07:01:20.165Z,7.00
2022-12-22T07:02:55.278Z,6.97
2022-12-22T07:03:35.296Z,6.97
2022-12-22T07:04:16.156Z,6.97
2022-12-22T07:04:56.173Z,6.99
2022-12-22T07:05:38.088Z,7.01
2022-12-22T07:06:21.231Z,6.95
2022-12-22T07:07:01.123Z,6.97
2022-12-22T07:07:42.255Z,7.02
2022-12-22T07:08:22.198Z,6.93
2022-12-22T07:09:02.203Z,7.04
2022-12-22T07:09:42.133Z,7.05
2022-12-22T07:10:43.187Z,6.94
2022-12-22T07:11:24.107Z,7.02
2022-12-22T07:12:04.241Z,7.01
2022-12-22T07:12:45.089Z,7.08
2022-12-22T07:13:34.240Z,7.06
2022-12-22T07:14:08.162Z,7.13
2022-12-22T07:14:56.119Z,7.14
2022-12-22T07:15:30.460Z,7.14
2022-12-22T07:16:21.168Z,7.09
2022-12-22T07:16:54.801Z,7.08
2022-12-22T07:17:42.112Z,7.09
2022-12-22T07:18:15.881Z,7.00
2022-12-22T07:18:57.106Z,7.07
2022-12-22T07:19:31.189Z,7.09
2022-12-22T07:20:05.401Z,7.03
2022-12-22T07:20:45.108Z,7.00
2022-12-22T07:21:21.228Z,6.96
2022-12-22T07:21:55.099Z,7.09
2022-12-22T07:22:35.097Z,6.98
2022-12-22T07:23:09.206Z,7.01
2022-12-22T07:23:43.450Z,6.92
2022-12-22T07:24:29.108Z,7.01
2022-12-22T07:25:03.238Z,7.02
2022-12-22T07:25:37.321Z,6.95
2022-12-22T07:26:18.243Z,6.91
2022-12-22T07:26:52.199Z,6.91
2022-12-22T07:27:26.218Z,7.04
2022-12-22T07:28:07.094Z,7.01
2022-12-22T07:28:42.288Z,7.04
2022-12-22T07:29:17.612Z,7.05
2022-12-22T07:29:57.119Z,7.06
2022-12-22T07:30:31.432Z,7.06
2022-12-22T07:31:06.195Z,7.08
2022-12-22T07:31:47.443Z,7.04
2022-12-22T07:32:21.271Z,7.06
2022-12-22T07:32:54.881Z,7.06
2022-12-22T07:33:36.110Z,6.98
2022-12-22T07:34:10.179Z,7.02
2022-12-22T07:34:43.981Z,7.01
2022-12-22T07:35:25.097Z,7.00
2022-12-22T07:36:19.608Z,6.91
2022-12-22T07:36:54.370Z,6.94
2022-12-22T07:37:34.088Z,6.91
2022-12-22T07:38:08.452Z,6.90
2022-12-22T07:38:46.030Z,6.97
2022-12-22T07:39:27.070Z,7.04
2022-12-22T07:40:01.291Z,6.98
2022-12-22T07:40:44.955Z,6.98
2022-12-22T07:41:47.042Z,7.04
2022-12-22T07:42:46.077Z,6.95
2022-12-22T07:43:27.179Z,6.91
2022-12-22T07:44:08.084Z,6.92
2022-12-22T07:44:49.221Z,7.02
2022-12-22T07:45:30.067Z,6.99
2022-12-22T07:46:13.138Z,7.10
2022-12-22T07:46:47.374Z,7.15
2022-12-22T07:47:21.064Z,7.23
2022-12-22T07:48:29.071Z,7.25
2022-12-22T07:49:35.468Z,7.19
2022-12-22T07:50:25.485Z,7.34
2022-12-22T07:51:10.065Z,7.29
2022-12-22T07:51:53.075Z,7.27
2022-12-22T07:52:26.891Z,7.41
2022-12-22T07:53:17.069Z,7.39
2022-12-22T07:53:50.953Z,7.41
2022-12-22T07:54:42.264Z,7.47
2022-12-22T07:55:16.896Z,7.53
2022-12-22T07:56:04.065Z,7.47
2022-12-22T07:56:38.697Z,7.45
2022-12-22T07:57:19.105Z,7.45
2022-12-22T07:57:53.114Z,7.49
2022-12-22T07:58:26.800Z,7.51
2022-12-22T07:59:08.065Z,7.55
2022-12-22T07:59:42.158Z,7.58
2022-12-22T08:00:17.200Z,7.65
2022-12-22T08:00:57.065Z,7.68
2022-12-22T08:01:31.149Z,7.75
2022-12-22T08:02:04.940Z,7.73
2022-12-22T08:02:46.164Z,7.71
2022-12-22T08:03:20.279Z,7.70
2022-12-22T08:03:53.926Z,7.71
2022-12-22T08:04:34.083Z,7.72
2022-12-22T08:05:08.212Z,7.67
2022-12-22T08:05:41.807Z,7.65
2022-12-22T08:06:22.056Z,7.75
2022-12-22T08:06:56.159Z,7.75
2022-12-22T08:07:29.909Z,7.82
2022-12-22T08:08:11.085Z,7.87
2022-12-22T08:08:45.187Z,7.95
2022-12-22T08:09:21.718Z,7.95
2022-12-22T08:10:02.125Z,7.97
2022-12-22T08:10:36.147Z,7.97
2022-12-22T08:11:09.914Z,7.94
2022-12-22T08:11:51.042Z,7.93
2022-12-22T08:12:25.164Z,7.80
2022-12-22T08:12:58.943Z,7.88
2022-12-22T08:13:41.071Z,7.94
2022-12-22T08:14:15.307Z,7.90
2022-12-22T08:14:49.807Z,7.99
2022-12-22T08:15:30.066Z,7.95
2022-12-22T08:16:13.271Z,7.97
2022-12-22T08:16:47.811Z,7.93
2022-12-22T08:17:28.038Z,7.92
2022-12-22T08:18:03.095Z,7.90
2022-12-22T08:18:37.593Z,7.95
2022-12-22T08:19:18.076Z,8.00
2022-12-22T08:19:52.107Z,7.88
2022-12-22T08:20:25.945Z,7.99
2022-12-22T08:21:07.020Z,7.90
2022-12-22T08:21:44.221Z,8.01
2022-12-22T08:22:24.495Z,8.04
2022-12-22T08:23:05.020Z,7.98
2022-12-22T08:23:39.156Z,7.91
2022-12-22T08:24:12.800Z,7.98
2022-12-22T08:24:53.026Z,8.08
2022-12-22T08:25:27.140Z,8.00
2022-12-22T08:26:25.282Z,7.95
2022-12-22T08:27:10.031Z,7.88
2022-12-22T08:27:51.162Z,8.00
2022-12-22T08:28:24.713Z,8.05
2022-12-22T08:29:41.032Z,8.12
2022-12-22T08:30:23.032Z,7.99
2022-12-22T08:30:56.723Z,8.05
2022-12-22T08:31:45.146Z,8.04
2022-12-22T08:32:18.873Z,8.09
2022-12-22T08:33:06.040Z,8.08
2022-12-22T08:33:39.832Z,8.23
2022-12-22T08:34:29.019Z,8.22
2022-12-22T08:35:07.033Z,8.15
2022-12-22T08:35:48.061Z,8.12
2022-12-22T08:36:22.079Z,8.11
2022-12-22T08:36:58.473Z,8.16
2022-12-22T08:37:42.024Z,8.21
2022-12-22T08:38:18.180Z,8.18
2022-12-22T08:38:52.073Z,8.12
2022-12-22T08:39:35.029Z,8.05
2022-12-22T08:40:12.099Z,8.05
2022-12-22T08:40:45.905Z,8.12
2022-12-22T08:41:46.054Z,8.17
2022-12-22T08:42:23.099Z,8.17
2022-12-22T08:43:08.419Z,8.11
2022-12-22T08:43:48.984Z,8.10
2022-12-22T08:44:30.270Z,8.14
2022-12-22T08:45:05.445Z,8.16
2022-12-22T08:45:45.015Z,8.11
2022-12-22T08:46:19.142Z,8.16
2022-12-22T08:47:01.086Z,8.25
2022-12-22T08:47:42.702Z,8.19
2022-12-22T08:48:23.007Z,8.23
2022-12-22T08:49:04.054Z,8.16
2022-12-22T08:49:44.048Z,8.16
2022-12-22T08:50:24.074Z,8.12
2022-12-22T08:51:04.006Z,8.00
2022-12-22T08:51:44.076Z,8.01
2022-12-22T08:52:24.057Z,8.10
2022-12-22T08:53:45.283Z,8.15
2022-12-22T08:54:15.989Z,8.08
2022-12-22T08:54:56.074Z,8.20
2022-12-22T08:55:36.017Z,8.25
2022-12-22T08:56:16.079Z,8.24
2022-12-22T08:56:55.985Z,8.37
2022-12-22T08:57:43.063Z,8.27
2022-12-22T08:58:16.699Z,8.33
2022-12-22T08:59:04.000Z,8.33
2022-12-22T08:59:37.731Z,8.34
2022-12-22T09:00:27.015Z,8.25
2022-12-22T09:01:00.731Z,8.25
2022-12-22T09:01:54.030Z,8.25
2022-12-22T09:02:27.759Z,8.24
2022-12-22T09:03:09.117Z,8.20
2022-12-22T09:03:43.025Z,8.31
2022-12-22T09:04:19.413Z,8.37
2022-12-22T09:04:58.992Z,8.41
2022-12-22T09:05:33.064Z,8.39
2022-12-22T09:06:07.050Z,8.40
2022-12-22T09:06:47.989Z,8.38
2022-12-22T09:07:22.097Z,8.44
2022-12-22T09:07:56.752Z,8.45
2022-12-22T09:08:36.988Z,8.42
2022-12-22T09:09:14.146Z,8.56
2022-12-22T09:09:47.770Z,8.54
2022-12-22T09:10:27.976Z,8.55
2022-12-22T09:11:02.067Z,8.55
2022-12-22T09:11:36.035Z,8.50
2022-12-22T09:12:17.002Z,8.61
2022-12-22T09:12:51.290Z,8.56
2022-12-22T09:13:25.682Z,8.59
2022-12-22T09:14:09.003Z,8.64
2022-12-22T09:14:43.175Z,8.60
2022-12-22T09:15:18.278Z,8.56
2022-12-22T09:15:58.011Z,8.58
2022-12-22T09:16:34.153Z,8.57
2022-12-22T09:17:08.702Z,8.46
2022-12-22T09:17:49.993Z,8.50
2022-12-22T09:18:24.038Z,8.55
2022-12-22T09:18:57.785Z,8.64
2022-12-22T09:19:37.999Z,8.54
2022-12-22T09:20:14.168Z,8.52
2022-12-22T09:20:48.066Z,8.63
2022-12-22T09:21:29.959Z,8.66
2022-12-22T09:22:04.045Z,8.64
2022-12-22T09:22:37.814Z,8.63
2022-12-22T09:23:17.957Z,8.64
2022-12-22T09:23:52.058Z,8.75
2022-12-22T09:24:25.671Z,8.73
2022-12-22T09:25:05.981Z,8.80
2022-12-22T09:25:41.069Z,8.61
2022-12-22T09:26:19.159Z,8.64
2022-12-22T09:26:59.967Z,8.58
2022-12-22T09:27:34.061Z,8.60
2022-12-22T09:28:08.010Z,8.74
2022-12-22T09:28:50.795Z,8.75
2022-12-22T09:29:25.067Z,8.78
2022-12-22T09:29:58.672Z,8.76
2022-12-22T09:30:39.004Z,8.69
2022-12-22T09:31:14.148Z,8.73
2022-12-22T09:31:48.758Z,8.73
2022-12-22T09:32:29.961Z,8.76
2022-12-22T09:33:04.058Z,8.58
2022-12-22T09:33:37.851Z,8.66
2022-12-22T09:34:18.993Z,8.70
2022-12-22T09:34:53.039Z,8.67
2022-12-22T09:35:26.801Z,8.59
2022-12-22T09:36:06.972Z,8.59
2022-12-22T09:36:41.015Z,8.64
2022-12-22T09:37:16.052Z,8.65
2022-12-22T09:37:55.984Z,8.72
2022-12-22T09:38:34.045Z,8.64
2022-12-22T09:39:10.861Z,8.67
2022-12-22T09:39:52.975Z,8.72
2022-12-22T09:40:27.106Z,8.77
2022-12-22T09:41:38.958Z,8.86
2022-12-22T09:42:27.107Z,8.81
2022-12-22T09:43:07.943Z,8.89
2022-12-22T09:43:48.058Z,8.83
2022-12-22T09:44:50.963Z,8.73
2022-12-22T09:45:33.837Z,8.61
2022-12-22T09:46:41.961Z,8.69
2022-12-22T09:47:42.034Z,8.66
2022-12-22T09:48:28.926Z,8.66
2022-12-22T09:49:03.004Z,8.66
2022-12-22T09:49:49.969Z,8.68
2022-12-22T09:50:24.091Z,8.63
2022-12-22T09:51:11.954Z,8.64
2022-12-22T09:52:02.970Z,8.64
2022-12-22T09:53:01.962Z,8.63
2022-12-22T09:53:58.929Z,8.60
2022-12-22T09:54:52.931Z,8.54
2022-12-22T09:55:59.928Z,8.48
2022-12-22T09:56:53.943Z,8.59
2022-12-22T09:57:37.961Z,8.60
2022-12-22T09:58:34.397Z,8.59
2022-12-22T09:59:23.937Z,8.61
2022-12-22T10:00:27.207Z,8.67
2022-12-22T10:01:35.027Z,8.64
2022-12-22T10:02:33.114Z,8.50
2022-12-22T10:03:42.132Z,8.58
2022-12-22T10:04:39.142Z,8.64
2022-12-22T10:05:34.934Z,8.62
2022-12-22T10:06:33.451Z,8.58
2022-12-22T10:07:33.923Z,8.65
2022-12-22T10:08:35.049Z,8.58
2022-12-22T10:10:37.074Z,8.62
2022-12-22T10:11:22.905Z,8.67
2022-12-22T10:12:10.008Z,8.65
2022-12-22T10:12:49.930Z,8.80
2022-12-22T10:13:29.964Z,8.64
2022-12-22T10:14:09.915Z,8.67
2022-12-22T10:14:56.925Z,8.74
2022-12-22T10:15:31.962Z,8.72